sim
Sign-in with your pilot id or email,
or register
Callsign
Passwort

Schedule Details

Flight Number: DLH2731
Departure: Berlin Tegel Airport (EDDT) at 19:40
Arrival: Munich Airport (EDDM) at 20:50
Route: Lufthansa Passenger Schedule. Enter filed route here before submitting Pirep.

Weather Information
Getting current METAR information for EDDT 240550Z 18007KT CAVOK 16/11 Q1002 NOSIG
Getting current METAR information for EDDM 240550Z 00000KT CAVOK 10/09 Q1009 BECMG 26008KT

Schedule Frequency

Route Map